Tampa, Florida
Traffic Map
Current Weather Conditions
Tampa, Florida
Overcast
Overcast
74°
Feels Like: 74°
Wind Chill: 74° Ceiling: 28000
Heat Index: 74° Visibility: 10mi
Dew Point: 64° Wind: 3mph
Humidity: 71% Direction: 360° (N)
Pressure: 29.96in Gusts: 0mph
Raw Report DataKTPA 220153Z 36003KT 10SM OVC280 23/18 A2996 RMK AO2 SLP145 T02330178
Traffic Incident Summary
Active as of:
Severity:
Category:
InformationThere was an issue retrieving the traffic information for this location. Please try a different location or try again shortly.
Advertisements
Track Severe Weather on mobile